Time;durP1;ratioP1;P1;durP2;ratioP2;P2;SDS_P1;SDS_P2;PMS_P1;PMS_P2;Temp;Humidity;BMP_temperature;BMP_pressure;BME280_temperature;BME280_humidity;BME280_pressure;Samples;Min_cycle;Max_cycle;Signal;HPM_P1;HPM_P2
2022/05/31 00:02:24;;;;;;;;;;;9.70;99.90;;;;;;4977732;28;20622;-78
2022/05/31 00:04:51;;;;;;;;;;;9.60;99.90;;;;;;4991289;28;19929;-78
2022/05/31 00:07:17;;;;;;;;;;;9.80;99.90;;;;;;4994403;28;20648;-78
2022/05/31 00:09:43;;;;;;;;;;;9.70;99.90;;;;;;4988640;28;20899;-78
2022/05/31 00:12:10;;;;;;;;;;;9.70;99.90;;;;;;4995672;28;19929;-78
2022/05/31 00:14:35;;;;;;;;;;;9.70;99.90;;;;;;4994009;28;20423;-78
2022/05/31 00:17:02;;;;;;;;;;;9.60;99.90;;;;;;4995798;28;20438;-78
2022/05/31 00:19:28;;;;;;;;;;;9.60;99.90;;;;;;4995106;28;19929;-78
2022/05/31 00:22:07;;;;;;;;;;;9.60;99.90;;;;;;4994461;28;19933;-78
2022/05/31 00:24:33;;;;;;;;;;;9.60;99.90;;;;;;5002177;28;19983;-78
2022/05/31 00:26:58;;;;;;;;;;;9.70;99.90;;;;;;5012860;28;20019;-78
2022/05/31 00:29:24;;;;;;;;;;;9.60;99.90;;;;;;4993047;28;19929;-78
2022/05/31 00:31:50;;;;;;;;;;;9.60;99.90;;;;;;5007710;28;19935;-78
2022/05/31 00:34:16;;;;;;;;;;;9.50;99.90;;;;;;5013624;28;19939;-78
2022/05/31 00:36:43;;;;;;;;;;;9.50;99.90;;;;;;4995675;28;19928;-78
2022/05/31 00:39:09;;;;;;;;;;;9.50;99.90;;;;;;5011672;28;20044;-78
2022/05/31 00:41:35;;;;;;;;;;;9.50;99.90;;;;;;5010193;28;19929;-78
2022/05/31 00:44:02;;;;;;;;;;;9.40;99.90;;;;;;4979340;28;20027;-78
2022/05/31 00:46:48;;;;;;;;;;;9.40;99.90;;;;;;4968157;28;19939;-78
2022/05/31 00:49:18;;;;;;;;;;;9.50;99.90;;;;;;5009591;28;20024;-78
2022/05/31 00:51:47;;;;;;;;;;;9.40;99.90;;;;;;5006407;28;19928;-78
2022/05/31 00:54:14;;;;;;;;;;;9.30;99.90;;;;;;5013128;28;20312;-78
2022/05/31 00:56:40;;;;;;;;;;;9.40;99.90;;;;;;4995610;28;20019;-78
2022/05/31 00:59:11;;;;;;;;;;;9.30;99.90;;;;;;5010889;28;20282;-78
2022/05/31 01:01:38;;;;;;;;;;;9.30;99.90;;;;;;5007414;28;19933;-78
2022/05/31 01:04:04;;;;;;;;;;;9.30;99.90;;;;;;5010604;28;20027;-78
2022/05/31 01:06:30;;;;;;;;;;;9.30;99.90;;;;;;5011035;28;19967;-77
2022/05/31 01:08:57;;;;;;;;;;;9.20;99.90;;;;;;5014763;28;20051;-78
2022/05/31 01:11:26;;;;;;;;;;;9.20;99.90;;;;;;5012113;28;19933;-77
2022/05/31 01:13:52;;;;;;;;;;;9.30;99.90;;;;;;5012209;28;19928;-78
2022/05/31 01:16:17;;;;;;;;;;;9.20;99.90;;;;;;5015438;28;19925;-77
2022/05/31 01:18:43;;;;;;;;;;;9.20;99.90;;;;;;5017355;28;19932;-77
2022/05/31 01:21:09;;;;;;;;;;;9.20;99.90;;;;;;5018831;28;19929;-77
2022/05/31 01:23:43;;;;;;;;;;;9.20;99.90;;;;;;5020111;28;19936;-77
2022/05/31 01:26:18;;;;;;;;;;;9.20;99.90;;;;;;5017771;28;19944;-77
2022/05/31 01:29:10;;;;;;;;;;;9.30;99.90;;;;;;5017868;28;19978;-77
2022/05/31 01:31:48;;;;;;;;;;;9.10;99.90;;;;;;5018154;28;20646;-77
2022/05/31 01:34:18;;;;;;;;;;;9.20;99.90;;;;;;5021052;28;19986;-77
2022/05/31 01:36:54;;;;;;;;;;;9.20;99.90;;;;;;5003445;28;19982;-77
2022/05/31 01:39:20;;;;;;;;;;;9.20;99.90;;;;;;5017609;28;19935;-77
2022/05/31 01:41:55;;;;;;;;;;;9.30;99.90;;;;;;5020871;28;19925;-77
2022/05/31 01:44:22;;;;;;;;;;;9.30;99.90;;;;;;5016467;28;20409;-77
2022/05/31 01:46:49;;;;;;;;;;;9.30;99.90;;;;;;5022521;28;19936;-77
2022/05/31 01:49:15;;;;;;;;;;;9.40;99.90;;;;;;5021471;28;19936;-77
2022/05/31 01:51:42;;;;;;;;;;;9.30;99.90;;;;;;5018208;28;19928;-77
2022/05/31 01:54:12;;;;;;;;;;;9.20;99.90;;;;;;5005920;28;20513;-77
2022/05/31 01:56:39;;;;;;;;;;;9.20;99.90;;;;;;5020325;28;19983;-77
2022/05/31 01:59:05;;;;;;;;;;;9.20;99.90;;;;;;5019862;28;20012;-77
2022/05/31 02:01:31;;;;;;;;;;;9.10;99.90;;;;;;5017908;28;19932;-77
2022/05/31 02:03:58;;;;;;;;;;;9.00;99.90;;;;;;5018670;28;20279;-77
2022/05/31 02:06:35;;;;;;;;;;;8.90;99.90;;;;;;5017755;28;19954;-77
2022/05/31 02:09:02;;;;;;;;;;;8.80;99.90;;;;;;5018079;28;19929;-77
2022/05/31 02:11:27;;;;;;;;;;;8.70;99.90;;;;;;5018773;28;20322;-77
2022/05/31 02:13:53;;;;;;;;;;;8.70;99.90;;;;;;5003817;28;19931;-77
2022/05/31 02:16:19;;;;;;;;;;;8.60;99.90;;;;;;5022408;28;20039;-77
2022/05/31 02:21:36;;;;;;;;;;;8.70;99.90;;;;;;5020710;28;20979;-77
2022/05/31 02:24:09;;;;;;;;;;;8.70;99.90;;;;;;5018584;28;20443;-77
2022/05/31 02:26:35;;;;;;;;;;;8.60;99.90;;;;;;5004030;28;19928;-77
2022/05/31 02:29:01;;;;;;;;;;;8.70;99.90;;;;;;5002259;28;19929;-77
2022/05/31 02:31:27;;;;;;;;;;;8.50;99.90;;;;;;5003602;28;19959;-77
2022/05/31 02:33:53;;;;;;;;;;;8.40;99.90;;;;;;5018459;28;19975;-77
2022/05/31 02:36:19;;;;;;;;;;;8.60;99.90;;;;;;5004487;28;20066;-77
2022/05/31 02:38:45;;;;;;;;;;;8.60;99.90;;;;;;4985036;28;20902;-78
2022/05/31 02:41:10;;;;;;;;;;;8.70;99.90;;;;;;5021016;28;19952;-77
2022/05/31 02:43:36;;;;;;;;;;;8.70;99.90;;;;;;5016891;28;19964;-77
2022/05/31 02:46:03;;;;;;;;;;;8.70;99.90;;;;;;5003590;28;20459;-77
2022/05/31 02:48:29;;;;;;;;;;;8.80;99.90;;;;;;5002887;28;19972;-77
2022/05/31 02:50:55;;;;;;;;;;;8.80;99.90;;;;;;5018816;28;20074;-77
2022/05/31 02:53:20;;;;;;;;;;;8.80;99.90;;;;;;5018658;28;19929;-78
2022/05/31 02:55:46;;;;;;;;;;;8.80;99.90;;;;;;5018262;28;20519;-77
2022/05/31 02:58:12;;;;;;;;;;;8.90;99.90;;;;;;5018349;28;19982;-77
2022/05/31 03:00:38;;;;;;;;;;;9.00;99.90;;;;;;5000126;28;20409;-77
2022/05/31 03:03:04;;;;;;;;;;;9.00;99.90;;;;;;5019399;28;20027;-77
2022/05/31 03:05:29;;;;;;;;;;;9.10;99.90;;;;;;5018125;28;19928;-77
2022/05/31 03:07:55;;;;;;;;;;;9.10;99.90;;;;;;5002331;28;20380;-77
2022/05/31 03:10:21;;;;;;;;;;;9.10;99.90;;;;;;5000501;28;20051;-77
2022/05/31 03:12:47;;;;;;;;;;;9.10;99.90;;;;;;5016287;28;20694;-77
2022/05/31 03:15:15;;;;;;;;;;;9.10;99.90;;;;;;4997723;28;19947;-77
2022/05/31 03:17:44;;;;;;;;;;;9.10;99.90;;;;;;5016706;28;20941;-77
2022/05/31 03:20:13;;;;;;;;;;;9.20;99.90;;;;;;5001134;28;19929;-78
2022/05/31 03:22:44;;;;;;;;;;;9.20;99.90;;;;;;5018204;28;19932;-78
2022/05/31 03:25:28;;;;;;;;;;;9.20;99.90;;;;;;5020072;28;19940;-78
2022/05/31 03:27:55;;;;;;;;;;;9.20;99.90;;;;;;5018018;28;19933;-78
2022/05/31 03:30:20;;;;;;;;;;;9.20;99.90;;;;;;5019713;28;20297;-77
2022/05/31 03:32:46;;;;;;;;;;;9.20;99.90;;;;;;5018070;28;19933;-77
2022/05/31 03:35:12;;;;;;;;;;;9.20;99.90;;;;;;5017274;28;19994;-77
2022/05/31 03:37:40;;;;;;;;;;;9.20;99.90;;;;;;4998528;28;20497;-78
2022/05/31 03:40:06;;;;;;;;;;;9.20;99.90;;;;;;5017022;28;19968;-78
2022/05/31 03:42:33;;;;;;;;;;;9.30;99.90;;;;;;5017571;28;20035;-78
2022/05/31 03:44:58;;;;;;;;;;;9.30;99.90;;;;;;5007708;28;20572;-77
2022/05/31 03:47:24;;;;;;;;;;;9.30;99.90;;;;;;5013613;28;20012;-78
2022/05/31 03:49:50;;;;;;;;;;;9.30;99.90;;;;;;4997458;28;20397;-77
2022/05/31 03:52:15;;;;;;;;;;;9.30;99.90;;;;;;5013416;28;20321;-78
2022/05/31 03:54:41;;;;;;;;;;;9.30;99.90;;;;;;5030109;28;19932;-78
2022/05/31 03:57:07;;;;;;;;;;;9.30;99.90;;;;;;5014529;28;19939;-78
2022/05/31 03:59:37;;;;;;;;;;;9.30;99.90;;;;;;5013148;28;19951;-78
2022/05/31 04:02:03;;;;;;;;;;;9.30;99.90;;;;;;5011957;28;19936;-78
2022/05/31 04:04:29;;;;;;;;;;;9.30;99.90;;;;;;5029210;28;19998;-77
2022/05/31 04:06:54;;;;;;;;;;;9.30;99.90;;;;;;5016483;28;20386;-77
2022/05/31 04:09:20;;;;;;;;;;;9.30;99.90;;;;;;5029607;28;20734;-78
2022/05/31 04:11:45;;;;;;;;;;;9.30;99.90;;;;;;5013174;28;19996;-78
2022/05/31 04:14:11;;;;;;;;;;;9.40;99.90;;;;;;5012507;28;20052;-78
2022/05/31 04:16:36;;;;;;;;;;;9.40;99.90;;;;;;5013042;28;19932;-78
2022/05/31 04:19:03;;;;;;;;;;;9.40;99.90;;;;;;5030471;28;19986;-79
2022/05/31 04:21:29;;;;;;;;;;;9.50;99.90;;;;;;5029938;28;19928;-78
2022/05/31 04:23:58;;;;;;;;;;;9.40;99.90;;;;;;5013951;28;19928;-78
2022/05/31 04:26:24;;;;;;;;;;;9.40;99.90;;;;;;5013728;28;19925;-78
2022/05/31 04:28:50;;;;;;;;;;;9.50;99.90;;;;;;5030625;28;20438;-78
2022/05/31 04:31:16;;;;;;;;;;;9.40;99.90;;;;;;5012333;28;19936;-78
2022/05/31 04:33:41;;;;;;;;;;;9.40;99.90;;;;;;5012248;28;19929;-78
2022/05/31 04:36:08;;;;;;;;;;;9.40;99.90;;;;;;5031473;28;19929;-78
2022/05/31 04:38:35;;;;;;;;;;;9.50;99.90;;;;;;5027576;28;19940;-78
2022/05/31 04:41:00;;;;;;;;;;;9.50;99.90;;;;;;5012594;28;20039;-78
2022/05/31 04:43:26;;;;;;;;;;;9.50;99.90;;;;;;5007355;28;19929;-78
2022/05/31 04:45:51;;;;;;;;;;;9.50;99.90;;;;;;5007110;28;19936;-78
2022/05/31 04:48:17;;;;;;;;;;;9.50;99.90;;;;;;5008346;28;19935;-78
2022/05/31 04:50:43;;;;;;;;;;;9.60;99.90;;;;;;5025228;28;19933;-78
2022/05/31 04:53:09;;;;;;;;;;;9.60;99.90;;;;;;5008222;28;19935;-78
2022/05/31 04:55:34;;;;;;;;;;;9.60;99.90;;;;;;5025620;28;19928;-80
2022/05/31 04:58:00;;;;;;;;;;;9.60;99.90;;;;;;5025465;28;19929;-80
2022/05/31 05:00:25;;;;;;;;;;;9.60;99.90;;;;;;5009469;28;20019;-80
2022/05/31 05:02:51;;;;;;;;;;;9.70;99.90;;;;;;5010239;28;20340;-79
2022/05/31 05:05:17;;;;;;;;;;;9.70;99.90;;;;;;5009202;28;19932;-79
2022/05/31 05:07:42;;;;;;;;;;;9.70;99.90;;;;;;5025053;28;19955;-79
2022/05/31 05:10:08;;;;;;;;;;;9.80;99.90;;;;;;5015555;28;20649;-79
2022/05/31 05:12:34;;;;;;;;;;;9.80;99.90;;;;;;5002115;28;20670;-80
2022/05/31 05:15:00;;;;;;;;;;;9.80;99.90;;;;;;5008668;28;19928;-79
2022/05/31 05:17:26;;;;;;;;;;;9.90;99.90;;;;;;5026157;28;19929;-78
2022/05/31 05:19:51;;;;;;;;;;;9.80;99.90;;;;;;5024614;28;20020;-79
2022/05/31 05:22:17;;;;;;;;;;;9.90;99.90;;;;;;5027576;28;19933;-78
2022/05/31 05:24:43;;;;;;;;;;;10.00;99.90;;;;;;5030572;28;20025;-78
2022/05/31 05:27:08;;;;;;;;;;;10.00;99.90;;;;;;5027253;28;19993;-78
2022/05/31 05:32:18;;;;;;;;;;;10.10;99.90;;;;;;5007924;28;20302;-78
2022/05/31 05:34:47;;;;;;;;;;;10.10;99.90;;;;;;5026632;28;20015;-78
2022/05/31 05:37:13;;;;;;;;;;;10.10;99.90;;;;;;5026196;28;19928;-79
2022/05/31 05:39:39;;;;;;;;;;;10.10;99.90;;;;;;5025867;28;20382;-78
2022/05/31 05:42:04;;;;;;;;;;;10.20;99.90;;;;;;5010884;28;19929;-81
2022/05/31 05:44:30;;;;;;;;;;;10.40;99.90;;;;;;5008684;28;19932;-78
2022/05/31 05:46:56;;;;;;;;;;;10.50;99.90;;;;;;5031232;28;19935;-78
2022/05/31 05:49:21;;;;;;;;;;;10.60;99.90;;;;;;5014592;28;19928;-79
2022/05/31 05:51:48;;;;;;;;;;;10.80;99.90;;;;;;5029995;28;19932;-79
2022/05/31 05:54:14;;;;;;;;;;;11.00;99.90;;;;;;5031590;28;19976;-79
2022/05/31 05:56:39;;;;;;;;;;;11.10;99.90;;;;;;5013985;28;20458;-79
2022/05/31 05:59:06;;;;;;;;;;;11.00;99.90;;;;;;5031616;28;19954;-79
2022/05/31 06:01:40;;;;;;;;;;;11.20;99.90;;;;;;5030436;28;19935;-79
2022/05/31 06:04:10;;;;;;;;;;;11.40;99.90;;;;;;5026593;28;20946;-79
2022/05/31 06:06:37;;;;;;;;;;;12.10;99.90;;;;;;5011004;28;19940;-79
2022/05/31 06:09:03;;;;;;;;;;;12.50;99.90;;;;;;5027989;28;20448;-80
2022/05/31 06:11:36;;;;;;;;;;;13.60;99.90;;;;;;5029344;28;20418;-80
2022/05/31 06:14:07;;;;;;;;;;;13.30;99.90;;;;;;5028822;28;19929;-79
2022/05/31 06:16:34;;;;;;;;;;;13.30;99.90;;;;;;5012004;28;19928;-80
2022/05/31 06:19:11;;;;;;;;;;;13.40;99.90;;;;;;5029888;28;19929;-82
2022/05/31 06:21:37;;;;;;;;;;;13.60;99.90;;;;;;5029843;28;19933;-80
2022/05/31 06:24:02;;;;;;;;;;;14.10;99.90;;;;;;4994935;28;19929;-81
2022/05/31 06:26:29;;;;;;;;;;;13.30;99.90;;;;;;4995917;28;20913;-80
2022/05/31 06:28:54;;;;;;;;;;;12.80;99.90;;;;;;5030297;28;20051;-80
2022/05/31 06:31:20;;;;;;;;;;;12.70;99.90;;;;;;5030962;28;19929;-80
2022/05/31 06:33:45;;;;;;;;;;;13.00;99.90;;;;;;5029988;28;19960;-80
2022/05/31 06:36:11;;;;;;;;;;;13.80;99.90;;;;;;5012982;28;19932;-80
2022/05/31 06:38:37;;;;;;;;;;;14.00;99.90;;;;;;5028653;28;19932;-81
2022/05/31 06:41:04;;;;;;;;;;;14.10;99.90;;;;;;5028731;28;19943;-80
2022/05/31 06:43:30;;;;;;;;;;;14.70;99.90;;;;;;5029430;28;19933;-81
2022/05/31 06:45:56;;;;;;;;;;;13.90;99.90;;;;;;5028806;28;19937;-80
2022/05/31 06:48:22;;;;;;;;;;;14.40;99.90;;;;;;5029519;28;19936;-80
2022/05/31 06:50:47;;;;;;;;;;;14.60;99.90;;;;;;5029673;28;20574;-80
2022/05/31 06:58:42;;;;;;;;;;;16.90;99.90;;;;;;5027538;28;19955;-80
2022/05/31 07:01:09;;;;;;;;;;;17.00;99.90;;;;;;5029899;28;19929;-79
2022/05/31 07:03:34;;;;;;;;;;;17.40;99.90;;;;;;5028547;28;20006;-80
2022/05/31 07:06:00;;;;;;;;;;;17.00;99.90;;;;;;5028124;28;20247;-79
2022/05/31 07:08:26;;;;;;;;;;;17.00;99.90;;;;;;5011986;28;19964;-81
2022/05/31 07:10:51;;;;;;;;;;;17.20;99.90;;;;;;4995079;28;20496;-80
2022/05/31 07:13:18;;;;;;;;;;;17.60;99.90;;;;;;5027507;28;19928;-81
2022/05/31 07:15:44;;;;;;;;;;;17.60;99.90;;;;;;5011390;28;19929;-82
2022/05/31 07:18:09;;;;;;;;;;;18.00;99.90;;;;;;5028591;28;20007;-81
2022/05/31 07:20:35;;;;;;;;;;;17.40;99.90;;;;;;5027452;28;20423;-81
2022/05/31 07:23:00;;;;;;;;;;;17.60;99.90;;;;;;5028079;28;20441;-80
2022/05/31 07:25:26;;;;;;;;;;;16.70;99.90;;;;;;5008276;28;19929;-81
2022/05/31 07:27:52;;;;;;;;;;;16.90;99.90;;;;;;5007852;28;19975;-81
2022/05/31 07:30:18;;;;;;;;;;;17.70;99.90;;;;;;5008799;28;19929;-81
2022/05/31 07:32:43;;;;;;;;;;;16.60;99.90;;;;;;5008317;28;19929;-81
2022/05/31 07:35:09;;;;;;;;;;;17.50;99.90;;;;;;5010170;28;20382;-82
2022/05/31 07:37:35;;;;;;;;;;;17.60;99.90;;;;;;4998035;28;20568;-80
2022/05/31 07:40:01;;;;;;;;;;;17.50;99.90;;;;;;5006570;28;19929;-80
2022/05/31 07:42:27;;;;;;;;;;;18.60;99.90;;;;;;5022946;28;20052;-81
2022/05/31 07:44:56;;;;;;;;;;;17.30;99.90;;;;;;5005206;28;20123;-82
2022/05/31 07:47:22;;;;;;;;;;;17.80;99.90;;;;;;5005607;28;21050;-83
2022/05/31 07:49:48;;;;;;;;;;;17.30;99.90;;;;;;5006482;28;19937;-80
2022/05/31 07:52:14;;;;;;;;;;;18.20;99.90;;;;;;5007821;28;19964;-81
2022/05/31 07:54:39;;;;;;;;;;;18.70;99.90;;;;;;5005760;28;20333;-82
2022/05/31 07:57:05;;;;;;;;;;;19.00;99.90;;;;;;5005586;28;19975;-81
2022/05/31 07:59:34;;;;;;;;;;;19.60;99.90;;;;;;5005581;28;19975;-80
2022/05/31 08:02:00;;;;;;;;;;;19.90;99.90;;;;;;5003543;28;19929;-82
2022/05/31 08:04:26;;;;;;;;;;;20.10;99.90;;;;;;5000566;28;19933;-80
2022/05/31 08:06:52;;;;;;;;;;;19.10;97.10;;;;;;4999870;28;19929;-80
2022/05/31 08:09:18;;;;;;;;;;;19.50;99.90;;;;;;4995974;28;19929;-81
2022/05/31 08:11:43;;;;;;;;;;;18.10;98.80;;;;;;4999654;28;19929;-82
2022/05/31 08:14:09;;;;;;;;;;;18.00;99.90;;;;;;5005438;28;19971;-81
2022/05/31 08:16:35;;;;;;;;;;;18.30;99.90;;;;;;5006059;28;20663;-80
2022/05/31 08:19:02;;;;;;;;;;;18.90;99.90;;;;;;5002765;28;20749;-79
2022/05/31 08:21:30;;;;;;;;;;;19.30;99.90;;;;;;4988382;28;19933;-79
2022/05/31 08:24:01;;;;;;;;;;;19.60;99.90;;;;;;5004412;28;19937;-80
2022/05/31 08:26:26;;;;;;;;;;;19.60;99.90;;;;;;5008001;28;19955;-83
2022/05/31 08:28:52;;;;;;;;;;;19.30;99.90;;;;;;5007602;28;19964;-82
2022/05/31 08:31:26;;;;;;;;;;;20.00;99.90;;;;;;5025427;28;20050;-82
2022/05/31 08:33:52;;;;;;;;;;;19.30;95.20;;;;;;5005820;28;20065;-82
2022/05/31 08:36:18;;;;;;;;;;;20.10;99.90;;;;;;5004400;28;20703;-82
2022/05/31 08:38:44;;;;;;;;;;;19.80;97.00;;;;;;5003100;28;19933;-82
2022/05/31 08:41:19;;;;;;;;;;;18.90;93.50;;;;;;5005953;28;19929;-81
2022/05/31 08:43:47;;;;;;;;;;;18.80;99.80;;;;;;5022596;28;20657;-80
2022/05/31 08:46:27;;;;;;;;;;;17.80;92.20;;;;;;5022179;28;19929;-82
2022/05/31 08:48:53;;;;;;;;;;;18.50;98.70;;;;;;5014747;28;19980;-82
2022/05/31 08:57:01;;;;;;;;;;;18.80;92.10;;;;;;5020281;28;19928;-81
2022/05/31 08:59:42;;;;;;;;;;;19.50;96.70;;;;;;5019043;28;19968;-80
2022/05/31 09:02:29;;;;;;;;;;;20.10;99.90;;;;;;5009998;28;19929;-82
2022/05/31 09:05:03;;;;;;;;;;;20.00;96.20;;;;;;5011244;28;19933;-81
2022/05/31 09:07:34;;;;;;;;;;;19.80;96.40;;;;;;5014570;28;20593;-82
2022/05/31 09:10:00;;;;;;;;;;;20.20;99.60;;;;;;5014009;28;19933;-82
2022/05/31 09:12:49;;;;;;;;;;;20.30;96.10;;;;;;4987445;28;19937;-78
2022/05/31 09:15:21;;;;;;;;;;;19.70;92.80;;;;;;4968076;28;20016;-81
2022/05/31 09:18:02;;;;;;;;;;;20.10;90.20;;;;;;4983744;28;20149;-80
2022/05/31 09:20:33;;;;;;;;;;;19.90;81.10;;;;;;4996844;28;19943;-80
2022/05/31 09:22:59;;;;;;;;;;;18.90;82.60;;;;;;4999233;28;20039;-81
2022/05/31 09:25:26;;;;;;;;;;;19.20;88.70;;;;;;5004525;28;19981;-80
2022/05/31 09:27:52;;;;;;;;;;;19.50;89.50;;;;;;5015093;28;20022;-85
2022/05/31 09:30:17;;;;;;;;;;;19.90;90.50;;;;;;5001627;28;19933;-81
2022/05/31 09:32:49;;;;;;;;;;;20.10;86.80;;;;;;5013608;28;20155;-81
2022/05/31 09:35:27;;;;;;;;;;;20.70;90.30;;;;;;5017755;28;20839;-81
2022/05/31 09:38:14;;;;;;;;;;;19.50;83.40;;;;;;4997183;28;20432;-79
2022/05/31 09:40:47;;;;;;;;;;;20.10;86.40;;;;;;4998376;28;19929;-82
2022/05/31 09:43:22;;;;;;;;;;;20.30;80.40;;;;;;5014826;28;19928;-82
2022/05/31 09:45:54;;;;;;;;;;;19.90;90.10;;;;;;5004706;28;19929;-85
2022/05/31 09:48:20;;;;;;;;;;;19.00;86.10;;;;;;4979756;28;20016;-82
2022/05/31 09:50:46;;;;;;;;;;;18.70;87.00;;;;;;5011088;28;20601;-83
2022/05/31 09:59:02;;;;;;;;;;;17.50;87.80;;;;;;4995482;28;19932;-81
2022/05/31 10:01:29;;;;;;;;;;;18.10;87.80;;;;;;5014433;28;19975;-82
2022/05/31 10:04:00;;;;;;;;;;;18.60;93.20;;;;;;4979294;28;19943;-82
2022/05/31 10:06:27;;;;;;;;;;;18.30;90.90;;;;;;4993230;28;19929;-83
2022/05/31 10:08:54;;;;;;;;;;;17.60;81.50;;;;;;5011280;28;19936;-81
2022/05/31 10:11:25;;;;;;;;;;;18.00;90.70;;;;;;4997827;28;19929;-83
2022/05/31 10:13:58;;;;;;;;;;;17.90;88.50;;;;;;5016452;28;19928;-82
2022/05/31 10:16:23;;;;;;;;;;;17.80;91.00;;;;;;4997371;28;19924;-79
2022/05/31 10:18:57;;;;;;;;;;;18.60;91.20;;;;;;5012373;28;19925;-83
2022/05/31 10:21:30;;;;;;;;;;;19.00;86.90;;;;;;5015596;28;19939;-81
2022/05/31 10:24:00;;;;;;;;;;;18.90;83.00;;;;;;5014913;28;20316;-82
2022/05/31 10:26:32;;;;;;;;;;;19.10;92.00;;;;;;5011286;28;20977;-81
2022/05/31 10:28:57;;;;;;;;;;;19.20;92.20;;;;;;5013344;28;20365;-83
2022/05/31 10:31:36;;;;;;;;;;;18.40;86.80;;;;;;4994554;28;19929;-82
2022/05/31 10:34:04;;;;;;;;;;;18.90;90.80;;;;;;5017893;28;19937;-80
2022/05/31 10:36:46;;;;;;;;;;;18.90;91.50;;;;;;5010309;28;19955;-81
2022/05/31 10:39:13;;;;;;;;;;;18.80;90.50;;;;;;5016725;28;19971;-82
2022/05/31 10:41:39;;;;;;;;;;;18.40;84.90;;;;;;5016703;28;22812;-81
2022/05/31 10:44:15;;;;;;;;;;;17.80;88.70;;;;;;5013762;28;19925;-82
2022/05/31 10:46:44;;;;;;;;;;;17.90;91.20;;;;;;5012345;28;19937;-81
2022/05/31 10:49:17;;;;;;;;;;;17.70;86.40;;;;;;5007979;28;19928;-82
2022/05/31 10:51:51;;;;;;;;;;;17.80;92.20;;;;;;4988336;28;20692;-79
2022/05/31 10:54:26;;;;;;;;;;;17.90;90.30;;;;;;5004586;28;19936;-82
2022/05/31 10:57:01;;;;;;;;;;;18.00;86.00;;;;;;5014406;28;19945;-82
2022/05/31 10:59:35;;;;;;;;;;;18.10;89.90;;;;;;5007763;28;19940;-81
2022/05/31 11:02:01;;;;;;;;;;;18.20;87.30;;;;;;5025906;28;19976;-78
2022/05/31 11:04:53;;;;;;;;;;;18.10;89.90;;;;;;5007072;28;20059;-81
2022/05/31 11:07:24;;;;;;;;;;;18.20;89.80;;;;;;5025529;28;20598;-81
2022/05/31 11:13:05;;;;;;;;;;;18.10;88.40;;;;;;5026982;28;19946;-83
2022/05/31 11:15:31;;;;;;;;;;;18.20;92.70;;;;;;5021719;28;20015;-80
2022/05/31 11:18:11;;;;;;;;;;;18.40;92.70;;;;;;5021799;28;19994;-81
2022/05/31 11:20:44;;;;;;;;;;;18.50;94.00;;;;;;5002840;28;19933;-81
2022/05/31 11:23:25;;;;;;;;;;;18.20;94.20;;;;;;5006306;28;19936;-81
2022/05/31 11:25:51;;;;;;;;;;;18.00;95.10;;;;;;4977271;28;19929;-80
2022/05/31 11:28:26;;;;;;;;;;;18.00;95.40;;;;;;4973865;28;19944;-78
2022/05/31 11:31:01;;;;;;;;;;;18.00;95.40;;;;;;4977216;28;22095;-80
2022/05/31 11:33:32;;;;;;;;;;;17.90;93.90;;;;;;4975892;28;19955;-78
2022/05/31 11:36:12;;;;;;;;;;;18.00;96.20;;;;;;4978805;28;19929;-80
2022/05/31 11:38:38;;;;;;;;;;;18.00;94.00;;;;;;4978343;28;19933;-80
2022/05/31 11:41:03;;;;;;;;;;;18.20;96.70;;;;;;4980337;28;20719;-79
2022/05/31 11:43:48;;;;;;;;;;;18.10;96.90;;;;;;4960496;28;19976;-79
2022/05/31 11:46:16;;;;;;;;;;;18.20;97.20;;;;;;4976287;28;20437;-80
2022/05/31 11:48:45;;;;;;;;;;;18.40;98.10;;;;;;4972921;28;19929;-80
2022/05/31 11:51:14;;;;;;;;;;;18.60;98.40;;;;;;4958824;28;19975;-80
2022/05/31 11:53:59;;;;;;;;;;;18.90;99.90;;;;;;4990524;28;19929;-81
2022/05/31 11:56:33;;;;;;;;;;;19.40;99.90;;;;;;4993678;28;19976;-81
2022/05/31 11:58:58;;;;;;;;;;;20.00;99.90;;;;;;4991278;28;19939;-78
2022/05/31 12:01:24;;;;;;;;;;;20.10;97.00;;;;;;4991122;28;19929;-79
2022/05/31 12:04:09;;;;;;;;;;;20.50;97.30;;;;;;4971059;28;19931;-78
2022/05/31 12:06:37;;;;;;;;;;;20.20;90.30;;;;;;4990194;28;19929;-80
2022/05/31 12:09:13;;;;;;;;;;;20.00;92.80;;;;;;4988047;28;19983;-81
2022/05/31 12:11:44;;;;;;;;;;;18.80;80.60;;;;;;4991207;28;19991;-77
2022/05/31 12:14:11;;;;;;;;;;;18.80;90.60;;;;;;4991832;28;19941;-82
2022/05/31 12:16:37;;;;;;;;;;;18.80;90.80;;;;;;4973319;28;19968;-82
2022/05/31 12:19:10;;;;;;;;;;;19.20;94.80;;;;;;4994298;28;19929;-82
2022/05/31 12:21:43;;;;;;;;;;;19.50;95.40;;;;;;4992174;28;19935;-79
2022/05/31 12:24:12;;;;;;;;;;;20.40;95.90;;;;;;4987818;28;19929;-78
2022/05/31 12:26:41;;;;;;;;;;;21.10;92.20;;;;;;4954892;28;19941;-82
2022/05/31 12:29:11;;;;;;;;;;;19.70;70.90;;;;;;4953939;28;19933;-79
2022/05/31 12:31:38;;;;;;;;;;;21.10;86.80;;;;;;4938752;28;20410;-81
2022/05/31 12:34:18;;;;;;;;;;;21.50;82.70;;;;;;4979868;28;20013;-83
2022/05/31 12:37:03;;;;;;;;;;;20.60;83.90;;;;;;4961369;28;20047;-82
2022/05/31 12:39:33;;;;;;;;;;;21.10;86.00;;;;;;4964921;28;19936;-82
2022/05/31 12:42:15;;;;;;;;;;;20.50;86.60;;;;;;4965499;28;19937;-81
2022/05/31 12:44:42;;;;;;;;;;;20.80;86.70;;;;;;4956589;28;19934;-81
2022/05/31 12:47:19;;;;;;;;;;;21.60;82.30;;;;;;4983829;28;20003;-81
2022/05/31 12:49:50;;;;;;;;;;;21.70;83.40;;;;;;4980106;28;19929;-78
2022/05/31 12:54:54;;;;;;;;;;;22.40;83.60;;;;;;4981565;28;19936;-83
2022/05/31 12:57:20;;;;;;;;;;;21.60;71.50;;;;;;4964196;28;19929;-83
2022/05/31 12:59:47;;;;;;;;;;;21.40;77.20;;;;;;4981693;28;19930;-82
2022/05/31 13:02:29;;;;;;;;;;;22.30;79.60;;;;;;4981148;28;19929;-80
2022/05/31 13:04:58;;;;;;;;;;;22.80;79.90;;;;;;4982681;28;19933;-81
2022/05/31 13:07:38;;;;;;;;;;;23.00;82.20;;;;;;4981866;28;19929;-83
2022/05/31 13:10:28;;;;;;;;;;;23.10;75.00;;;;;;4979526;28;19933;-81
2022/05/31 13:21:12;;;;;;;;;;;23.30;74.10;;;;;;4965484;28;19934;-81
2022/05/31 13:23:41;;;;;;;;;;;23.20;70.10;;;;;;4979461;28;20606;-83
2022/05/31 13:26:12;;;;;;;;;;;19.80;57.70;;;;;;4997888;28;19929;-84
2022/05/31 13:29:01;;;;;;;;;;;20.30;70.10;;;;;;4994630;28;20611;-82
2022/05/31 13:31:30;;;;;;;;;;;20.80;73.20;;;;;;4992300;28;19933;-82
2022/05/31 13:33:59;;;;;;;;;;;19.90;65.00;;;;;;4982534;28;19933;-79
2022/05/31 13:36:27;;;;;;;;;;;20.20;72.60;;;;;;4981899;28;19936;-81
2022/05/31 13:39:03;;;;;;;;;;;21.20;75.10;;;;;;4995151;28;20298;-83
2022/05/31 13:41:29;;;;;;;;;;;22.00;73.40;;;;;;4982787;28;19936;-81
2022/05/31 13:44:00;;;;;;;;;;;22.40;72.70;;;;;;4998817;28;19987;-81
2022/05/31 13:46:40;;;;;;;;;;;22.70;73.60;;;;;;4993767;28;20353;-82
2022/05/31 13:49:21;;;;;;;;;;;22.60;67.50;;;;;;5000853;28;19964;-82
2022/05/31 13:51:50;;;;;;;;;;;23.20;71.30;;;;;;4998695;28;20390;-83
2022/05/31 13:54:17;;;;;;;;;;;23.10;66.10;;;;;;4989765;28;19961;-82
2022/05/31 13:56:47;;;;;;;;;;;22.80;70.60;;;;;;5001453;28;19933;-82
2022/05/31 13:59:12;;;;;;;;;;;23.30;69.90;;;;;;4983808;28;19933;-82
2022/05/31 14:01:45;;;;;;;;;;;23.70;71.40;;;;;;5000581;28;19925;-81
2022/05/31 14:04:18;;;;;;;;;;;23.90;69.40;;;;;;4985376;28;19999;-81
2022/05/31 14:06:45;;;;;;;;;;;24.20;69.10;;;;;;5000147;28;20791;-82
2022/05/31 14:09:13;;;;;;;;;;;24.10;68.20;;;;;;4971559;28;19936;-81
2022/05/31 14:11:46;;;;;;;;;;;23.80;69.10;;;;;;5005031;28;20425;-82
2022/05/31 14:14:21;;;;;;;;;;;23.30;70.60;;;;;;5001204;28;19929;-82
2022/05/31 14:16:46;;;;;;;;;;;23.10;67.60;;;;;;4987336;28;20043;-81
2022/05/31 14:19:16;;;;;;;;;;;22.60;71.10;;;;;;5005552;28;19963;-81
2022/05/31 14:21:42;;;;;;;;;;;22.30;70.80;;;;;;4981576;28;19964;-83
2022/05/31 14:24:12;;;;;;;;;;;21.80;70.60;;;;;;4985565;28;19968;-83
2022/05/31 14:26:39;;;;;;;;;;;21.40;74.70;;;;;;5001001;28;19937;-81
2022/05/31 14:29:12;;;;;;;;;;;20.90;67.30;;;;;;4968963;28;19940;-81
2022/05/31 14:31:39;;;;;;;;;;;20.80;71.00;;;;;;5002568;28;19933;-83
2022/05/31 14:34:06;;;;;;;;;;;21.30;71.70;;;;;;4986314;28;19940;-83
2022/05/31 14:36:36;;;;;;;;;;;21.90;69.70;;;;;;4984851;28;19929;-83
2022/05/31 14:39:05;;;;;;;;;;;21.40;62.60;;;;;;4983757;28;19959;-83
2022/05/31 14:41:34;;;;;;;;;;;21.40;70.90;;;;;;5000714;28;19933;-81
2022/05/31 14:44:01;;;;;;;;;;;21.20;68.00;;;;;;4988120;28;19929;-81
2022/05/31 14:46:27;;;;;;;;;;;21.50;64.70;;;;;;4995004;28;20409;-83
2022/05/31 14:49:03;;;;;;;;;;;21.80;64.90;;;;;;5001980;28;19929;-83
2022/05/31 14:51:33;;;;;;;;;;;22.00;72.40;;;;;;4985249;28;20003;-82
2022/05/31 14:53:59;;;;;;;;;;;21.90;66.90;;;;;;4999883;28;19979;-82
2022/05/31 14:56:25;;;;;;;;;;;21.60;67.90;;;;;;5001455;28;20738;-82
2022/05/31 14:58:53;;;;;;;;;;;21.90;72.80;;;;;;4997963;28;19929;-84
2022/05/31 15:01:37;;;;;;;;;;;21.10;61.40;;;;;;4983659;28;19929;-81
2022/05/31 15:04:11;;;;;;;;;;;19.90;59.40;;;;;;5000570;28;19965;-81
2022/05/31 15:06:39;;;;;;;;;;;21.40;68.20;;;;;;4982653;28;19929;-82
2022/05/31 15:09:14;;;;;;;;;;;21.60;63.90;;;;;;4983150;28;19944;-84